sensor_id;sensor_type;location;lat;lon;timestamp;P1;durP1;ratioP1;P2;durP2;ratioP2
76423;SDS011;65257;52.104;4.268;2024-03-23T00:54:51;16.67;;;2.40;;
76423;SDS011;65257;52.104;4.268;2024-03-23T00:57:22;15.27;;;2.47;;
76423;SDS011;65257;52.104;4.268;2024-03-23T00:59:48;9.68;;;2.58;;
76423;SDS011;65257;52.104;4.268;2024-03-23T01:02:16;11.38;;;2.70;;
76423;SDS011;65257;52.104;4.268;2024-03-23T01:04:41;11.02;;;2.50;;
76423;SDS011;65257;52.104;4.268;2024-03-23T01:07:07;19.52;;;3.47;;
76423;SDS011;65257;52.104;4.268;2024-03-23T01:09:34;15.38;;;2.92;;
76423;SDS011;65257;52.104;4.268;2024-03-23T01:11:59;24.45;;;2.88;;
76423;SDS011;65257;52.104;4.268;2024-03-23T01:14:24;11.57;;;2.63;;
76423;SDS011;65257;52.104;4.268;2024-03-23T01:16:53;10.63;;;2.30;;
76423;SDS011;65257;52.104;4.268;2024-03-23T01:19:21;19.48;;;3.20;;
76423;SDS011;65257;52.104;4.268;2024-03-23T01:21:49;18.65;;;3.10;;
76423;SDS011;65257;52.104;4.268;2024-03-23T01:24:14;11.73;;;2.50;;
76423;SDS011;65257;52.104;4.268;2024-03-23T01:26:42;14.77;;;3.13;;
76423;SDS011;65257;52.104;4.268;2024-03-23T01:29:08;14.98;;;2.72;;
76423;SDS011;65257;52.104;4.268;2024-03-23T01:31:33;16.00;;;2.67;;
76423;SDS011;65257;52.104;4.268;2024-03-23T01:33:59;12.50;;;3.00;;
76423;SDS011;65257;52.104;4.268;2024-03-23T01:36:24;14.48;;;3.17;;
76423;SDS011;65257;52.104;4.268;2024-03-23T01:38:56;14.18;;;3.22;;
76423;SDS011;65257;52.104;4.268;2024-03-23T01:41:21;16.00;;;3.03;;
76423;SDS011;65257;52.104;4.268;2024-03-23T01:43:50;9.85;;;2.28;;
76423;SDS011;65257;52.104;4.268;2024-03-23T01:46:15;14.98;;;3.30;;
76423;SDS011;65257;52.104;4.268;2024-03-23T01:48:47;15.00;;;3.22;;
76423;SDS011;65257;52.104;4.268;2024-03-23T01:51:13;15.60;;;3.40;;
76423;SDS011;65257;52.104;4.268;2024-03-23T01:53:39;20.75;;;3.50;;
76423;SDS011;65257;52.104;4.268;2024-03-23T01:56:08;12.43;;;3.22;;
76423;SDS011;65257;52.104;4.268;2024-03-23T01:58:36;13.50;;;2.47;;
76423;SDS011;65257;52.104;4.268;2024-03-23T02:01:02;14.88;;;3.47;;
76423;SDS011;65257;52.104;4.268;2024-03-23T02:03:30;14.25;;;3.13;;
76423;SDS011;65257;52.104;4.268;2024-03-23T02:05:59;15.52;;;3.30;;
76423;SDS011;65257;52.104;4.268;2024-03-23T02:08:35;12.85;;;2.90;;
76423;SDS011;65257;52.104;4.268;2024-03-23T02:11:03;15.10;;;3.22;;
76423;SDS011;65257;52.104;4.268;2024-03-23T02:13:29;21.63;;;4.22;;
76423;SDS011;65257;52.104;4.268;2024-03-23T02:15:56;15.15;;;3.40;;
76423;SDS011;65257;52.104;4.268;2024-03-23T02:18:22;14.43;;;3.42;;
76423;SDS011;65257;52.104;4.268;2024-03-23T02:20:53;13.32;;;3.15;;
76423;SDS011;65257;52.104;4.268;2024-03-23T02:23:22;20.70;;;4.13;;
76423;SDS011;65257;52.104;4.268;2024-03-23T02:25:49;15.80;;;3.38;;
76423;SDS011;65257;52.104;4.268;2024-03-23T02:28:15;13.00;;;3.38;;
76423;SDS011;65257;52.104;4.268;2024-03-23T02:30:42;14.10;;;2.85;;
76423;SDS011;65257;52.104;4.268;2024-03-23T02:33:07;15.38;;;3.15;;
76423;SDS011;65257;52.104;4.268;2024-03-23T02:35:33;19.10;;;3.45;;
76423;SDS011;65257;52.104;4.268;2024-03-23T02:38:04;17.50;;;3.00;;
76423;SDS011;65257;52.104;4.268;2024-03-23T02:40:32;14.52;;;3.63;;
76423;SDS011;65257;52.104;4.268;2024-03-23T02:42:58;20.63;;;3.13;;
76423;SDS011;65257;52.104;4.268;2024-03-23T02:45:26;13.10;;;3.38;;
76423;SDS011;65257;52.104;4.268;2024-03-23T02:47:51;17.92;;;3.67;;
76423;SDS011;65257;52.104;4.268;2024-03-23T02:50:20;13.38;;;2.88;;
76423;SDS011;65257;52.104;4.268;2024-03-23T02:52:46;15.52;;;3.33;;
76423;SDS011;65257;52.104;4.268;2024-03-23T02:55:13;11.82;;;2.78;;
76423;SDS011;65257;52.104;4.268;2024-03-23T02:57:40;18.20;;;3.33;;
76423;SDS011;65257;52.104;4.268;2024-03-23T03:00:14;15.93;;;3.50;;
76423;SDS011;65257;52.104;4.268;2024-03-23T03:02:45;20.85;;;3.78;;
76423;SDS011;65257;52.104;4.268;2024-03-23T03:05:10;19.17;;;3.03;;
76423;SDS011;65257;52.104;4.268;2024-03-23T03:07:37;13.80;;;3.22;;
76423;SDS011;65257;52.104;4.268;2024-03-23T03:10:10;15.65;;;3.97;;
76423;SDS011;65257;52.104;4.268;2024-03-23T03:12:37;12.85;;;3.00;;
76423;SDS011;65257;52.104;4.268;2024-03-23T03:15:05;10.05;;;2.92;;
76423;SDS011;65257;52.104;4.268;2024-03-23T03:17:34;10.95;;;3.10;;
76423;SDS011;65257;52.104;4.268;2024-03-23T03:19:59;12.05;;;3.85;;
76423;SDS011;65257;52.104;4.268;2024-03-23T03:22:25;15.07;;;3.10;;
76423;SDS011;65257;52.104;4.268;2024-03-23T03:24:52;17.88;;;3.38;;
76423;SDS011;65257;52.104;4.268;2024-03-23T03:27:25;11.88;;;2.80;;
76423;SDS011;65257;52.104;4.268;2024-03-23T03:29:59;12.02;;;3.08;;
76423;SDS011;65257;52.104;4.268;2024-03-23T03:32:28;19.63;;;3.30;;
76423;SDS011;65257;52.104;4.268;2024-03-23T03:34:59;12.32;;;2.88;;
76423;SDS011;65257;52.104;4.268;2024-03-23T03:37:35;15.98;;;4.22;;
76423;SDS011;65257;52.104;4.268;2024-03-23T03:40:02;16.27;;;3.20;;
76423;SDS011;65257;52.104;4.268;2024-03-23T03:42:33;25.80;;;4.28;;
76423;SDS011;65257;52.104;4.268;2024-03-23T03:44:59;21.27;;;3.65;;
76423;SDS011;65257;52.104;4.268;2024-03-23T03:47:24;18.08;;;3.00;;
76423;SDS011;65257;52.104;4.268;2024-03-23T03:49:50;17.67;;;3.67;;
76423;SDS011;65257;52.104;4.268;2024-03-23T03:52:15;16.77;;;3.20;;
76423;SDS011;65257;52.104;4.268;2024-03-23T03:54:43;15.23;;;3.17;;
76423;SDS011;65257;52.104;4.268;2024-03-23T03:57:12;13.35;;;3.67;;
76423;SDS011;65257;52.104;4.268;2024-03-23T03:59:38;13.65;;;3.08;;
76423;SDS011;65257;52.104;4.268;2024-03-23T04:02:06;16.88;;;4.95;;
76423;SDS011;65257;52.104;4.268;2024-03-23T04:04:31;16.60;;;3.72;;
76423;SDS011;65257;52.104;4.268;2024-03-23T04:07:00;17.40;;;3.00;;
76423;SDS011;65257;52.104;4.268;2024-03-23T04:09:26;20.77;;;3.05;;
76423;SDS011;65257;52.104;4.268;2024-03-23T04:11:53;17.63;;;3.63;;
76423;SDS011;65257;52.104;4.268;2024-03-23T04:14:19;24.92;;;4.32;;
76423;SDS011;65257;52.104;4.268;2024-03-23T04:16:47;23.15;;;3.65;;
76423;SDS011;65257;52.104;4.268;2024-03-23T04:19:13;13.60;;;3.05;;
76423;SDS011;65257;52.104;4.268;2024-03-23T04:21:39;20.50;;;3.95;;
76423;SDS011;65257;52.104;4.268;2024-03-23T04:24:05;17.58;;;3.83;;
76423;SDS011;65257;52.104;4.268;2024-03-23T04:26:44;23.52;;;3.78;;
76423;SDS011;65257;52.104;4.268;2024-03-23T04:29:09;13.82;;;3.60;;
76423;SDS011;65257;52.104;4.268;2024-03-23T04:31:34;19.40;;;3.35;;
76423;SDS011;65257;52.104;4.268;2024-03-23T04:34:06;17.70;;;4.13;;
76423;SDS011;65257;52.104;4.268;2024-03-23T04:36:31;16.70;;;4.32;;
76423;SDS011;65257;52.104;4.268;2024-03-23T04:39:00;17.98;;;3.33;;
76423;SDS011;65257;52.104;4.268;2024-03-23T04:41:25;15.68;;;3.35;;
76423;SDS011;65257;52.104;4.268;2024-03-23T04:43:51;33.22;;;5.28;;
76423;SDS011;65257;52.104;4.268;2024-03-23T04:46:17;14.60;;;3.50;;
76423;SDS011;65257;52.104;4.268;2024-03-23T04:48:45;18.02;;;4.47;;
76423;SDS011;65257;52.104;4.268;2024-03-23T04:51:19;13.77;;;3.90;;
76423;SDS011;65257;52.104;4.268;2024-03-23T04:53:46;18.45;;;4.47;;
76423;SDS011;65257;52.104;4.268;2024-03-23T04:56:13;17.88;;;3.88;;
76423;SDS011;65257;52.104;4.268;2024-03-23T04:58:38;12.40;;;3.30;;
76423;SDS011;65257;52.104;4.268;2024-03-23T05:01:04;15.43;;;3.42;;
76423;SDS011;65257;52.104;4.268;2024-03-23T05:03:29;17.92;;;4.10;;
76423;SDS011;65257;52.104;4.268;2024-03-23T05:05:58;25.90;;;5.53;;
76423;SDS011;65257;52.104;4.268;2024-03-23T05:08:23;16.88;;;4.30;;
76423;SDS011;65257;52.104;4.268;2024-03-23T05:10:52;17.58;;;4.40;;
76423;SDS011;65257;52.104;4.268;2024-03-23T05:13:17;17.38;;;4.43;;
76423;SDS011;65257;52.104;4.268;2024-03-23T05:15:43;17.25;;;4.38;;
76423;SDS011;65257;52.104;4.268;2024-03-23T05:18:17;15.90;;;4.30;;
76423;SDS011;65257;52.104;4.268;2024-03-23T05:20:43;18.23;;;4.38;;
76423;SDS011;65257;52.104;4.268;2024-03-23T05:23:09;17.27;;;4.97;;
76423;SDS011;65257;52.104;4.268;2024-03-23T05:25:38;20.13;;;5.40;;
76423;SDS011;65257;52.104;4.268;2024-03-23T05:28:06;15.32;;;4.18;;
76423;SDS011;65257;52.104;4.268;2024-03-23T05:30:35;14.27;;;4.05;;
76423;SDS011;65257;52.104;4.268;2024-03-23T05:33:00;23.83;;;4.32;;
76423;SDS011;65257;52.104;4.268;2024-03-23T05:35:26;24.50;;;4.80;;
76423;SDS011;65257;52.104;4.268;2024-03-23T05:37:51;18.40;;;4.07;;
76423;SDS011;65257;52.104;4.268;2024-03-23T05:40:16;23.77;;;4.90;;
76423;SDS011;65257;52.104;4.268;2024-03-23T05:42:42;21.38;;;3.60;;
76423;SDS011;65257;52.104;4.268;2024-03-23T05:45:10;13.07;;;3.88;;
76423;SDS011;65257;52.104;4.268;2024-03-23T05:47:36;15.82;;;3.63;;
76423;SDS011;65257;52.104;4.268;2024-03-23T05:50:01;15.95;;;4.15;;
76423;SDS011;65257;52.104;4.268;2024-03-23T05:52:30;25.65;;;4.32;;
76423;SDS011;65257;52.104;4.268;2024-03-23T05:54:55;13.57;;;4.30;;
76423;SDS011;65257;52.104;4.268;2024-03-23T05:57:20;20.38;;;3.65;;
76423;SDS011;65257;52.104;4.268;2024-03-23T05:59:46;21.38;;;4.57;;
76423;SDS011;65257;52.104;4.268;2024-03-23T06:02:11;13.80;;;3.85;;
76423;SDS011;65257;52.104;4.268;2024-03-23T06:04:40;12.27;;;3.50;;
76423;SDS011;65257;52.104;4.268;2024-03-23T06:07:05;23.08;;;4.28;;
76423;SDS011;65257;52.104;4.268;2024-03-23T06:09:57;14.05;;;3.50;;
76423;SDS011;65257;52.104;4.268;2024-03-23T06:12:22;19.63;;;3.67;;
76423;SDS011;65257;52.104;4.268;2024-03-23T06:14:47;16.58;;;4.60;;
76423;SDS011;65257;52.104;4.268;2024-03-23T06:17:14;19.70;;;4.78;;
76423;SDS011;65257;52.104;4.268;2024-03-23T06:19:46;15.82;;;4.18;;
76423;SDS011;65257;52.104;4.268;2024-03-23T06:22:12;19.77;;;4.63;;
76423;SDS011;65257;52.104;4.268;2024-03-23T06:24:37;26.42;;;5.45;;
76423;SDS011;65257;52.104;4.268;2024-03-23T06:27:03;28.15;;;4.78;;
76423;SDS011;65257;52.104;4.268;2024-03-23T06:29:29;25.45;;;5.78;;
76423;SDS011;65257;52.104;4.268;2024-03-23T06:31:55;24.95;;;5.78;;
76423;SDS011;65257;52.104;4.268;2024-03-23T06:34:20;22.95;;;4.80;;
76423;SDS011;65257;52.104;4.268;2024-03-23T06:36:55;20.50;;;4.57;;
76423;SDS011;65257;52.104;4.268;2024-03-23T06:39:21;16.25;;;4.03;;
76423;SDS011;65257;52.104;4.268;2024-03-23T06:41:53;12.75;;;4.13;;
76423;SDS011;65257;52.104;4.268;2024-03-23T06:44:22;16.77;;;3.65;;
76423;SDS011;65257;52.104;4.268;2024-03-23T06:46:57;22.15;;;5.00;;
76423;SDS011;65257;52.104;4.268;2024-03-23T06:49:22;17.23;;;4.13;;
76423;SDS011;65257;52.104;4.268;2024-03-23T06:51:51;22.60;;;4.03;;
76423;SDS011;65257;52.104;4.268;2024-03-23T06:54:20;13.57;;;3.13;;
76423;SDS011;65257;52.104;4.268;2024-03-23T06:56:45;18.60;;;4.07;;
76423;SDS011;65257;52.104;4.268;2024-03-23T06:59:11;19.88;;;4.45;;
76423;SDS011;65257;52.104;4.268;2024-03-23T07:01:37;26.77;;;4.05;;
76423;SDS011;65257;52.104;4.268;2024-03-23T07:04:05;26.92;;;5.32;;
76423;SDS011;65257;52.104;4.268;2024-03-23T07:06:33;16.60;;;3.70;;
76423;SDS011;65257;52.104;4.268;2024-03-23T07:08:59;20.15;;;3.50;;
76423;SDS011;65257;52.104;4.268;2024-03-23T07:11:24;18.90;;;4.38;;
76423;SDS011;65257;52.104;4.268;2024-03-23T07:13:50;19.13;;;4.15;;
76423;SDS011;65257;52.104;4.268;2024-03-23T07:16:20;17.98;;;4.18;;
76423;SDS011;65257;52.104;4.268;2024-03-23T07:18:45;16.13;;;4.88;;
76423;SDS011;65257;52.104;4.268;2024-03-23T07:21:14;17.67;;;3.75;;
76423;SDS011;65257;52.104;4.268;2024-03-23T07:23:41;15.73;;;3.72;;
76423;SDS011;65257;52.104;4.268;2024-03-23T07:26:10;14.52;;;3.30;;
76423;SDS011;65257;52.104;4.268;2024-03-23T07:28:38;15.38;;;3.85;;
76423;SDS011;65257;52.104;4.268;2024-03-23T07:31:09;16.70;;;3.83;;
76423;SDS011;65257;52.104;4.268;2024-03-23T07:33:42;12.70;;;3.10;;
76423;SDS011;65257;52.104;4.268;2024-03-23T07:36:11;16.67;;;3.78;;
76423;SDS011;65257;52.104;4.268;2024-03-23T07:38:41;18.88;;;4.28;;
76423;SDS011;65257;52.104;4.268;2024-03-23T07:41:09;23.30;;;4.22;;
76423;SDS011;65257;52.104;4.268;2024-03-23T07:43:47;19.50;;;5.50;;
76423;SDS011;65257;52.104;4.268;2024-03-23T07:46:16;17.50;;;3.88;;
76423;SDS011;65257;52.104;4.268;2024-03-23T07:48:41;16.55;;;4.10;;
76423;SDS011;65257;52.104;4.268;2024-03-23T07:51:17;16.25;;;4.03;;
76423;SDS011;65257;52.104;4.268;2024-03-23T07:53:45;16.63;;;3.85;;
76423;SDS011;65257;52.104;4.268;2024-03-23T07:56:17;23.50;;;4.13;;
76423;SDS011;65257;52.104;4.268;2024-03-23T07:58:44;19.70;;;3.78;;
76423;SDS011;65257;52.104;4.268;2024-03-23T08:01:14;14.15;;;3.60;;
76423;SDS011;65257;52.104;4.268;2024-03-23T08:03:41;17.40;;;4.13;;
76423;SDS011;65257;52.104;4.268;2024-03-23T08:06:14;15.98;;;4.25;;
76423;SDS011;65257;52.104;4.268;2024-03-23T08:08:44;27.08;;;5.63;;
76423;SDS011;65257;52.104;4.268;2024-03-23T08:11:15;14.20;;;3.80;;
76423;SDS011;65257;52.104;4.268;2024-03-23T08:13:44;18.05;;;3.95;;
76423;SDS011;65257;52.104;4.268;2024-03-23T08:16:13;24.08;;;3.83;;
76423;SDS011;65257;52.104;4.268;2024-03-23T08:18:39;27.73;;;4.72;;
76423;SDS011;65257;52.104;4.268;2024-03-23T08:21:05;23.55;;;4.10;;
76423;SDS011;65257;52.104;4.268;2024-03-23T08:23:32;24.65;;;4.80;;
76423;SDS011;65257;52.104;4.268;2024-03-23T08:26:12;21.95;;;4.60;;
76423;SDS011;65257;52.104;4.268;2024-03-23T08:28:39;23.20;;;3.90;;
76423;SDS011;65257;52.104;4.268;2024-03-23T08:31:06;20.13;;;4.22;;
76423;SDS011;65257;52.104;4.268;2024-03-23T08:33:33;17.08;;;4.13;;
76423;SDS011;65257;52.104;4.268;2024-03-23T08:35:59;28.60;;;4.50;;
76423;SDS011;65257;52.104;4.268;2024-03-23T08:38:32;24.65;;;5.45;;
76423;SDS011;65257;52.104;4.268;2024-03-23T08:41:04;19.67;;;4.95;;
76423;SDS011;65257;52.104;4.268;2024-03-23T08:43:32;25.60;;;4.30;;
76423;SDS011;65257;52.104;4.268;2024-03-23T08:46:10;20.42;;;4.97;;
76423;SDS011;65257;52.104;4.268;2024-03-23T08:48:40;32.17;;;6.43;;
76423;SDS011;65257;52.104;4.268;2024-03-23T08:51:09;33.05;;;6.03;;
76423;SDS011;65257;52.104;4.268;2024-03-23T08:53:39;31.60;;;5.32;;
76423;SDS011;65257;52.104;4.268;2024-03-23T08:56:08;47.25;;;5.80;;
76423;SDS011;65257;52.104;4.268;2024-03-23T08:58:35;31.17;;;5.35;;
76423;SDS011;65257;52.104;4.268;2024-03-23T09:03:35;31.92;;;5.63;;
76423;SDS011;65257;52.104;4.268;2024-03-23T09:08:27;40.60;;;6.00;;
76423;SDS011;65257;52.104;4.268;2024-03-23T09:10:56;27.60;;;4.28;;
76423;SDS011;65257;52.104;4.268;2024-03-23T09:13:22;32.40;;;4.45;;
76423;SDS011;65257;52.104;4.268;2024-03-23T09:15:51;29.38;;;5.13;;
76423;SDS011;65257;52.104;4.268;2024-03-23T09:18:21;21.00;;;4.00;;
76423;SDS011;65257;52.104;4.268;2024-03-23T09:20:53;47.67;;;6.07;;
76423;SDS011;65257;52.104;4.268;2024-03-23T09:23:20;35.75;;;5.28;;
76423;SDS011;65257;52.104;4.268;2024-03-23T09:25:46;26.33;;;4.80;;
76423;SDS011;65257;52.104;4.268;2024-03-23T09:28:12;25.70;;;4.43;;
76423;SDS011;65257;52.104;4.268;2024-03-23T09:30:47;33.38;;;6.15;;
76423;SDS011;65257;52.104;4.268;2024-03-23T09:33:13;29.23;;;5.10;;
76423;SDS011;65257;52.104;4.268;2024-03-23T09:35:44;35.95;;;4.57;;
76423;SDS011;65257;52.104;4.268;2024-03-23T09:38:12;35.92;;;4.85;;
76423;SDS011;65257;52.104;4.268;2024-03-23T09:40:41;36.28;;;5.80;;
76423;SDS011;65257;52.104;4.268;2024-03-23T09:43:10;25.25;;;5.57;;
76423;SDS011;65257;52.104;4.268;2024-03-23T09:45:39;51.13;;;5.65;;
76423;SDS011;65257;52.104;4.268;2024-03-23T09:48:09;28.40;;;4.38;;
76423;SDS011;65257;52.104;4.268;2024-03-23T09:50:38;49.35;;;6.45;;
76423;SDS011;65257;52.104;4.268;2024-03-23T09:53:07;47.78;;;7.07;;
76423;SDS011;65257;52.104;4.268;2024-03-23T09:55:34;44.28;;;6.53;;
76423;SDS011;65257;52.104;4.268;2024-03-23T09:58:02;66.78;;;7.45;;
76423;SDS011;65257;52.104;4.268;2024-03-23T10:03:18;52.33;;;6.82;;
76423;SDS011;65257;52.104;4.268;2024-03-23T10:05:43;39.90;;;5.22;;
76423;SDS011;65257;52.104;4.268;2024-03-23T10:10:38;55.40;;;7.60;;
76423;SDS011;65257;52.104;4.268;2024-03-23T10:13:04;58.63;;;8.45;;
76423;SDS011;65257;52.104;4.268;2024-03-23T10:15:29;40.38;;;6.95;;
76423;SDS011;65257;52.104;4.268;2024-03-23T10:17:58;42.60;;;6.93;;
76423;SDS011;65257;52.104;4.268;2024-03-23T10:20:24;58.92;;;8.32;;
76423;SDS011;65257;52.104;4.268;2024-03-23T10:22:50;72.60;;;9.18;;
76423;SDS011;65257;52.104;4.268;2024-03-23T10:25:22;54.15;;;8.02;;
76423;SDS011;65257;52.104;4.268;2024-03-23T10:28:03;68.28;;;9.68;;
76423;SDS011;65257;52.104;4.268;2024-03-23T10:30:29;90.40;;;12.05;;
76423;SDS011;65257;52.104;4.268;2024-03-23T10:33:07;49.17;;;7.93;;
76423;SDS011;65257;52.104;4.268;2024-03-23T10:35:33;68.10;;;9.50;;
76423;SDS011;65257;52.104;4.268;2024-03-23T10:38:05;64.70;;;9.05;;
76423;SDS011;65257;52.104;4.268;2024-03-23T10:40:38;57.80;;;8.48;;
76423;SDS011;65257;52.104;4.268;2024-03-23T10:43:05;81.50;;;10.00;;
76423;SDS011;65257;52.104;4.268;2024-03-23T10:45:34;60.20;;;9.25;;
76423;SDS011;65257;52.104;4.268;2024-03-23T10:48:03;55.13;;;8.10;;
76423;SDS011;65257;52.104;4.268;2024-03-23T10:50:29;53.00;;;8.02;;
76423;SDS011;65257;52.104;4.268;2024-03-23T10:52:54;71.93;;;10.80;;
76423;SDS011;65257;52.104;4.268;2024-03-23T10:55:24;69.90;;;9.43;;
76423;SDS011;65257;52.104;4.268;2024-03-23T10:57:51;67.38;;;9.02;;
76423;SDS011;65257;52.104;4.268;2024-03-23T11:00:19;67.00;;;9.18;;
76423;SDS011;65257;52.104;4.268;2024-03-23T11:02:47;43.75;;;7.93;;
76423;SDS011;65257;52.104;4.268;2024-03-23T11:05:29;55.70;;;8.65;;
76423;SDS011;65257;52.104;4.268;2024-03-23T11:07:57;67.28;;;9.65;;
76423;SDS011;65257;52.104;4.268;2024-03-23T11:10:31;36.38;;;6.60;;
76423;SDS011;65257;52.104;4.268;2024-03-23T11:15:57;63.80;;;9.00;;
76423;SDS011;65257;52.104;4.268;2024-03-23T11:18:39;60.75;;;9.00;;
76423;SDS011;65257;52.104;4.268;2024-03-23T11:21:06;64.47;;;9.18;;
76423;SDS011;65257;52.104;4.268;2024-03-23T11:23:32;62.95;;;9.48;;
76423;SDS011;65257;52.104;4.268;2024-03-23T11:25:57;43.78;;;8.02;;
76423;SDS011;65257;52.104;4.268;2024-03-23T11:28:23;53.03;;;8.43;;
76423;SDS011;65257;52.104;4.268;2024-03-23T11:30:48;55.17;;;7.97;;
76423;SDS011;65257;52.104;4.268;2024-03-23T11:33:13;57.20;;;9.55;;
76423;SDS011;65257;52.104;4.268;2024-03-23T11:35:40;77.70;;;11.35;;
76423;SDS011;65257;52.104;4.268;2024-03-23T11:38:13;62.67;;;9.45;;
76423;SDS011;65257;52.104;4.268;2024-03-23T11:43:07;51.70;;;8.63;;
76423;SDS011;65257;52.104;4.268;2024-03-23T11:45:47;68.68;;;10.00;;
76423;SDS011;65257;52.104;4.268;2024-03-23T11:48:20;56.50;;;9.40;;
76423;SDS011;65257;52.104;4.268;2024-03-23T11:50:49;69.15;;;10.63;;
76423;SDS011;65257;52.104;4.268;2024-03-23T11:55:46;55.22;;;8.45;;
76423;SDS011;65257;52.104;4.268;2024-03-23T11:58:21;62.25;;;10.27;;
76423;SDS011;65257;52.104;4.268;2024-03-23T12:01:03;89.65;;;11.32;;
76423;SDS011;65257;52.104;4.268;2024-03-23T12:03:33;55.10;;;7.68;;
76423;SDS011;65257;52.104;4.268;2024-03-23T12:06:00;57.72;;;7.43;;
76423;SDS011;65257;52.104;4.268;2024-03-23T12:08:32;37.50;;;5.47;;
76423;SDS011;65257;52.104;4.268;2024-03-23T12:11:19;53.83;;;7.43;;
76423;SDS011;65257;52.104;4.268;2024-03-23T12:13:45;16.40;;;3.05;;
76423;SDS011;65257;52.104;4.268;2024-03-23T12:18:39;14.57;;;2.95;;
76423;SDS011;65257;52.104;4.268;2024-03-23T12:21:12;9.95;;;2.17;;
76423;SDS011;65257;52.104;4.268;2024-03-23T12:23:40;17.35;;;3.60;;
76423;SDS011;65257;52.104;4.268;2024-03-23T12:26:10;21.95;;;3.63;;
76423;SDS011;65257;52.104;4.268;2024-03-23T12:28:45;23.67;;;4.35;;
76423;SDS011;65257;52.104;4.268;2024-03-23T12:31:11;29.98;;;5.85;;
76423;SDS011;65257;52.104;4.268;2024-03-23T12:33:36;48.38;;;5.97;;
76423;SDS011;65257;52.104;4.268;2024-03-23T12:36:05;55.88;;;8.45;;
76423;SDS011;65257;52.104;4.268;2024-03-23T12:38:31;65.82;;;8.23;;
76423;SDS011;65257;52.104;4.268;2024-03-23T12:40:56;42.40;;;6.72;;
76423;SDS011;65257;52.104;4.268;2024-03-23T12:43:21;36.88;;;5.95;;
76423;SDS011;65257;52.104;4.268;2024-03-23T12:45:48;44.08;;;5.80;;
76423;SDS011;65257;52.104;4.268;2024-03-23T12:48:17;59.42;;;9.98;;
76423;SDS011;65257;52.104;4.268;2024-03-23T12:50:43;65.70;;;10.85;;
76423;SDS011;65257;52.104;4.268;2024-03-23T12:53:11;56.33;;;7.72;;
76423;SDS011;65257;52.104;4.268;2024-03-23T12:55:37;68.85;;;8.13;;
76423;SDS011;65257;52.104;4.268;2024-03-23T12:58:02;53.53;;;7.28;;
76423;SDS011;65257;52.104;4.268;2024-03-23T13:00:32;56.25;;;7.57;;
76423;SDS011;65257;52.104;4.268;2024-03-23T13:03:01;74.15;;;9.60;;
76423;SDS011;65257;52.104;4.268;2024-03-23T13:05:26;40.60;;;6.25;;
76423;SDS011;65257;52.104;4.268;2024-03-23T13:07:52;65.60;;;8.93;;
76423;SDS011;65257;52.104;4.268;2024-03-23T13:10:17;63.30;;;7.97;;
76423;SDS011;65257;52.104;4.268;2024-03-23T13:12:42;67.28;;;9.27;;
76423;SDS011;65257;52.104;4.268;2024-03-23T13:15:09;53.25;;;7.60;;
76423;SDS011;65257;52.104;4.268;2024-03-23T13:17:35;56.65;;;7.75;;
76423;SDS011;65257;52.104;4.268;2024-03-23T13:20:04;46.22;;;7.35;;
76423;SDS011;65257;52.104;4.268;2024-03-23T13:22:39;69.50;;;9.73;;
76423;SDS011;65257;52.104;4.268;2024-03-23T13:25:08;72.88;;;10.57;;
76423;SDS011;65257;52.104;4.268;2024-03-23T13:27:33;61.28;;;7.68;;
76423;SDS011;65257;52.104;4.268;2024-03-23T13:30:02;51.25;;;7.32;;
76423;SDS011;65257;52.104;4.268;2024-03-23T13:32:32;70.47;;;8.52;;
76423;SDS011;65257;52.104;4.268;2024-03-23T13:35:00;38.08;;;5.70;;
76423;SDS011;65257;52.104;4.268;2024-03-23T13:37:26;28.85;;;4.38;;
76423;SDS011;65257;52.104;4.268;2024-03-23T13:39:52;14.38;;;2.75;;
76423;SDS011;65257;52.104;4.268;2024-03-23T13:42:20;13.05;;;3.28;;
76423;SDS011;65257;52.104;4.268;2024-03-23T13:44:45;24.17;;;4.40;;
76423;SDS011;65257;52.104;4.268;2024-03-23T13:47:11;20.35;;;3.50;;
76423;SDS011;65257;52.104;4.268;2024-03-23T13:49:39;17.00;;;2.95;;
76423;SDS011;65257;52.104;4.268;2024-03-23T13:52:05;21.95;;;3.42;;
76423;SDS011;65257;52.104;4.268;2024-03-23T13:54:35;24.88;;;3.53;;
76423;SDS011;65257;52.104;4.268;2024-03-23T13:57:00;16.95;;;3.38;;
76423;SDS011;65257;52.104;4.268;2024-03-23T13:59:26;16.02;;;3.17;;
76423;SDS011;65257;52.104;4.268;2024-03-23T14:01:53;34.47;;;5.35;;
76423;SDS011;65257;52.104;4.268;2024-03-23T14:04:18;47.15;;;6.85;;
76423;SDS011;65257;52.104;4.268;2024-03-23T14:06:47;35.63;;;4.45;;
76423;SDS011;65257;52.104;4.268;2024-03-23T14:09:13;30.65;;;4.32;;
76423;SDS011;65257;52.104;4.268;2024-03-23T14:11:40;30.90;;;4.47;;
76423;SDS011;65257;52.104;4.268;2024-03-23T14:14:32;37.92;;;6.35;;
76423;SDS011;65257;52.104;4.268;2024-03-23T14:16:58;54.00;;;8.73;;
76423;SDS011;65257;52.104;4.268;2024-03-23T14:19:23;47.92;;;6.60;;
76423;SDS011;65257;52.104;4.268;2024-03-23T14:21:49;31.45;;;5.07;;
76423;SDS011;65257;52.104;4.268;2024-03-23T14:24:15;39.13;;;5.35;;
76423;SDS011;65257;52.104;4.268;2024-03-23T14:26:40;43.28;;;6.57;;
76423;SDS011;65257;52.104;4.268;2024-03-23T14:29:06;30.33;;;4.72;;
76423;SDS011;65257;52.104;4.268;2024-03-23T14:31:32;27.67;;;4.65;;
76423;SDS011;65257;52.104;4.268;2024-03-23T14:33:57;38.45;;;4.65;;
76423;SDS011;65257;52.104;4.268;2024-03-23T14:36:24;35.33;;;4.95;;
76423;SDS011;65257;52.104;4.268;2024-03-23T14:38:51;33.58;;;4.90;;
76423;SDS011;65257;52.104;4.268;2024-03-23T14:41:24;34.38;;;4.78;;
76423;SDS011;65257;52.104;4.268;2024-03-23T14:43:52;50.65;;;6.78;;
76423;SDS011;65257;52.104;4.268;2024-03-23T14:46:19;43.38;;;5.40;;
76423;SDS011;65257;52.104;4.268;2024-03-23T14:48:45;43.50;;;5.25;;
76423;SDS011;65257;52.104;4.268;2024-03-23T14:51:11;25.95;;;3.67;;
76423;SDS011;65257;52.104;4.268;2024-03-23T14:53:40;31.38;;;4.32;;
76423;SDS011;65257;52.104;4.268;2024-03-23T14:56:09;23.42;;;3.58;;
76423;SDS011;65257;52.104;4.268;2024-03-23T14:58:43;27.33;;;4.15;;
76423;SDS011;65257;52.104;4.268;2024-03-23T15:01:10;32.28;;;4.05;;
76423;SDS011;65257;52.104;4.268;2024-03-23T15:03:36;49.70;;;6.95;;
76423;SDS011;65257;52.104;4.268;2024-03-23T15:06:07;27.35;;;3.90;;
76423;SDS011;65257;52.104;4.268;2024-03-23T15:08:38;25.77;;;3.65;;
76423;SDS011;65257;52.104;4.268;2024-03-23T15:11:05;16.35;;;2.95;;
76423;SDS011;65257;52.104;4.268;2024-03-23T15:13:34;19.27;;;2.83;;
76423;SDS011;65257;52.104;4.268;2024-03-23T15:16:06;14.65;;;3.20;;
76423;SDS011;65257;52.104;4.268;2024-03-23T15:18:32;24.10;;;4.20;;
76423;SDS011;65257;52.104;4.268;2024-03-23T15:20:59;18.23;;;3.30;;
76423;SDS011;65257;52.104;4.268;2024-03-23T15:23:46;17.55;;;2.70;;
76423;SDS011;65257;52.104;4.268;2024-03-23T15:26:12;27.15;;;3.78;;
76423;SDS011;65257;52.104;4.268;2024-03-23T15:28:41;35.08;;;4.72;;
76423;SDS011;65257;52.104;4.268;2024-03-23T15:31:26;17.42;;;2.70;;
76423;SDS011;65257;52.104;4.268;2024-03-23T15:33:52;31.35;;;3.25;;
76423;SDS011;65257;52.104;4.268;2024-03-23T15:36:24;21.35;;;3.85;;
76423;SDS011;65257;52.104;4.268;2024-03-23T15:38:50;27.88;;;3.42;;
76423;SDS011;65257;52.104;4.268;2024-03-23T15:41:16;26.95;;;3.17;;
76423;SDS011;65257;52.104;4.268;2024-03-23T15:43:42;42.28;;;4.60;;
76423;SDS011;65257;52.104;4.268;2024-03-23T15:46:07;34.53;;;4.75;;
76423;SDS011;65257;52.104;4.268;2024-03-23T15:48:37;49.88;;;7.28;;
76423;SDS011;65257;52.104;4.268;2024-03-23T15:51:03;58.55;;;7.88;;
76423;SDS011;65257;52.104;4.268;2024-03-23T15:53:35;37.35;;;4.95;;